sensor_id;sensor_type;location;lat;lon;timestamp;P1;durP1;ratioP1;P2;durP2;ratioP2
36291;SDS011;22327;51.208;6.418;2023-04-08T00:00:12;23.30;;;13.25;;
36291;SDS011;22327;51.208;6.418;2023-04-08T00:02:38;30.50;;;13.90;;
36291;SDS011;22327;51.208;6.418;2023-04-08T00:05:04;26.42;;;13.82;;
36291;SDS011;22327;51.208;6.418;2023-04-08T00:07:30;26.08;;;13.32;;
36291;SDS011;22327;51.208;6.418;2023-04-08T00:09:56;27.63;;;13.40;;
36291;SDS011;22327;51.208;6.418;2023-04-08T00:12:21;26.98;;;14.35;;
36291;SDS011;22327;51.208;6.418;2023-04-08T00:14:47;28.50;;;14.73;;
36291;SDS011;22327;51.208;6.418;2023-04-08T00:17:12;32.13;;;14.88;;
36291;SDS011;22327;51.208;6.418;2023-04-08T00:19:38;34.45;;;14.18;;
36291;SDS011;22327;51.208;6.418;2023-04-08T00:22:03;35.72;;;16.27;;
36291;SDS011;22327;51.208;6.418;2023-04-08T00:24:29;32.95;;;15.32;;
36291;SDS011;22327;51.208;6.418;2023-04-08T00:26:55;33.40;;;16.10;;
36291;SDS011;22327;51.208;6.418;2023-04-08T00:29:21;36.22;;;16.65;;
36291;SDS011;22327;51.208;6.418;2023-04-08T00:31:46;35.92;;;15.57;;
36291;SDS011;22327;51.208;6.418;2023-04-08T00:34:12;35.30;;;15.38;;
36291;SDS011;22327;51.208;6.418;2023-04-08T00:36:38;34.72;;;16.90;;
36291;SDS011;22327;51.208;6.418;2023-04-08T00:39:04;31.38;;;16.20;;
36291;SDS011;22327;51.208;6.418;2023-04-08T00:41:32;33.13;;;16.38;;
36291;SDS011;22327;51.208;6.418;2023-04-08T00:43:58;33.15;;;16.70;;
36291;SDS011;22327;51.208;6.418;2023-04-08T00:46:24;39.97;;;17.40;;
36291;SDS011;22327;51.208;6.418;2023-04-08T00:48:50;35.00;;;17.73;;
36291;SDS011;22327;51.208;6.418;2023-04-08T00:51:16;37.47;;;17.05;;
36291;SDS011;22327;51.208;6.418;2023-04-08T00:53:42;40.72;;;17.50;;
36291;SDS011;22327;51.208;6.418;2023-04-08T00:56:08;37.88;;;17.42;;
36291;SDS011;22327;51.208;6.418;2023-04-08T00:58:34;38.05;;;18.15;;
36291;SDS011;22327;51.208;6.418;2023-04-08T01:01:11;43.53;;;19.15;;
36291;SDS011;22327;51.208;6.418;2023-04-08T01:03:49;37.33;;;18.17;;
36291;SDS011;22327;51.208;6.418;2023-04-08T01:06:31;37.78;;;18.20;;
36291;SDS011;22327;51.208;6.418;2023-04-08T01:09:06;37.38;;;18.50;;
36291;SDS011;22327;51.208;6.418;2023-04-08T01:11:33;41.45;;;18.58;;
36291;SDS011;22327;51.208;6.418;2023-04-08T01:14:02;42.92;;;18.88;;
36291;SDS011;22327;51.208;6.418;2023-04-08T01:16:31;35.13;;;17.83;;
36291;SDS011;22327;51.208;6.418;2023-04-08T01:18:58;43.65;;;18.60;;
36291;SDS011;22327;51.208;6.418;2023-04-08T01:21:24;36.85;;;18.85;;
36291;SDS011;22327;51.208;6.418;2023-04-08T01:23:58;32.22;;;17.20;;
36291;SDS011;22327;51.208;6.418;2023-04-08T01:26:35;34.28;;;17.67;;
36291;SDS011;22327;51.208;6.418;2023-04-08T01:29:01;37.47;;;18.65;;
36291;SDS011;22327;51.208;6.418;2023-04-08T01:31:27;37.00;;;18.75;;
36291;SDS011;22327;51.208;6.418;2023-04-08T01:33:53;38.60;;;19.92;;
36291;SDS011;22327;51.208;6.418;2023-04-08T01:36:20;39.40;;;19.77;;
36291;SDS011;22327;51.208;6.418;2023-04-08T01:38:47;36.45;;;19.15;;
36291;SDS011;22327;51.208;6.418;2023-04-08T01:41:14;40.95;;;19.55;;
36291;SDS011;22327;51.208;6.418;2023-04-08T01:43:42;41.80;;;19.40;;
36291;SDS011;22327;51.208;6.418;2023-04-08T01:46:09;41.30;;;20.83;;
36291;SDS011;22327;51.208;6.418;2023-04-08T01:48:36;39.67;;;20.48;;
36291;SDS011;22327;51.208;6.418;2023-04-08T01:51:03;40.47;;;20.08;;
36291;SDS011;22327;51.208;6.418;2023-04-08T01:53:29;38.13;;;19.60;;
36291;SDS011;22327;51.208;6.418;2023-04-08T01:55:56;39.58;;;19.25;;
36291;SDS011;22327;51.208;6.418;2023-04-08T01:58:30;43.40;;;20.38;;
36291;SDS011;22327;51.208;6.418;2023-04-08T02:01:01;39.83;;;20.02;;
36291;SDS011;22327;51.208;6.418;2023-04-08T02:03:27;43.10;;;19.58;;
36291;SDS011;22327;51.208;6.418;2023-04-08T02:05:55;42.45;;;20.33;;
36291;SDS011;22327;51.208;6.418;2023-04-08T02:08:21;46.80;;;21.30;;
36291;SDS011;22327;51.208;6.418;2023-04-08T02:10:46;46.83;;;21.05;;
36291;SDS011;22327;51.208;6.418;2023-04-08T02:13:12;43.90;;;21.95;;
36291;SDS011;22327;51.208;6.418;2023-04-08T02:15:38;43.80;;;21.63;;
36291;SDS011;22327;51.208;6.418;2023-04-08T02:18:14;51.33;;;22.15;;
36291;SDS011;22327;51.208;6.418;2023-04-08T02:20:46;54.50;;;21.40;;
36291;SDS011;22327;51.208;6.418;2023-04-08T02:23:18;54.45;;;22.73;;
36291;SDS011;22327;51.208;6.418;2023-04-08T02:25:46;54.53;;;22.95;;
36291;SDS011;22327;51.208;6.418;2023-04-08T02:28:12;54.53;;;22.90;;
36291;SDS011;22327;51.208;6.418;2023-04-08T02:30:43;53.75;;;24.60;;
36291;SDS011;22327;51.208;6.418;2023-04-08T02:33:18;54.85;;;22.52;;
36291;SDS011;22327;51.208;6.418;2023-04-08T02:35:46;58.22;;;24.23;;
36291;SDS011;22327;51.208;6.418;2023-04-08T02:38:18;54.00;;;23.27;;
36291;SDS011;22327;51.208;6.418;2023-04-08T02:40:44;60.88;;;23.83;;
36291;SDS011;22327;51.208;6.418;2023-04-08T02:43:10;57.55;;;24.02;;
36291;SDS011;22327;51.208;6.418;2023-04-08T02:45:40;59.78;;;24.05;;
36291;SDS011;22327;51.208;6.418;2023-04-08T02:48:06;63.03;;;23.95;;
36291;SDS011;22327;51.208;6.418;2023-04-08T02:50:32;61.13;;;24.83;;
36291;SDS011;22327;51.208;6.418;2023-04-08T02:52:57;58.13;;;24.83;;
36291;SDS011;22327;51.208;6.418;2023-04-08T02:55:23;64.15;;;24.45;;
36291;SDS011;22327;51.208;6.418;2023-04-08T02:57:48;59.92;;;23.83;;
36291;SDS011;22327;51.208;6.418;2023-04-08T03:00:14;62.28;;;23.33;;
36291;SDS011;22327;51.208;6.418;2023-04-08T03:02:41;56.65;;;23.20;;
36291;SDS011;22327;51.208;6.418;2023-04-08T03:05:07;59.33;;;23.02;;
36291;SDS011;22327;51.208;6.418;2023-04-08T03:07:33;62.95;;;23.80;;
36291;SDS011;22327;51.208;6.418;2023-04-08T03:09:59;63.47;;;23.80;;
36291;SDS011;22327;51.208;6.418;2023-04-08T03:12:24;61.50;;;23.92;;
36291;SDS011;22327;51.208;6.418;2023-04-08T03:14:53;67.70;;;24.45;;
36291;SDS011;22327;51.208;6.418;2023-04-08T03:17:19;73.70;;;26.67;;
36291;SDS011;22327;51.208;6.418;2023-04-08T03:19:45;63.67;;;24.13;;
36291;SDS011;22327;51.208;6.418;2023-04-08T03:22:10;61.22;;;23.58;;
36291;SDS011;22327;51.208;6.418;2023-04-08T03:24:37;66.05;;;23.70;;
36291;SDS011;22327;51.208;6.418;2023-04-08T03:27:02;70.97;;;24.55;;
36291;SDS011;22327;51.208;6.418;2023-04-08T03:29:28;78.78;;;24.58;;
36291;SDS011;22327;51.208;6.418;2023-04-08T03:31:54;67.85;;;26.00;;
36291;SDS011;22327;51.208;6.418;2023-04-08T03:34:19;62.30;;;23.85;;
36291;SDS011;22327;51.208;6.418;2023-04-08T03:36:45;74.35;;;26.65;;
36291;SDS011;22327;51.208;6.418;2023-04-08T03:39:11;77.55;;;26.17;;
36291;SDS011;22327;51.208;6.418;2023-04-08T03:41:36;68.38;;;25.98;;
36291;SDS011;22327;51.208;6.418;2023-04-08T03:44:02;80.75;;;27.98;;
36291;SDS011;22327;51.208;6.418;2023-04-08T03:46:28;74.18;;;26.10;;
36291;SDS011;22327;51.208;6.418;2023-04-08T03:48:53;71.90;;;26.48;;
36291;SDS011;22327;51.208;6.418;2023-04-08T03:51:19;73.03;;;27.00;;
36291;SDS011;22327;51.208;6.418;2023-04-08T03:53:44;71.00;;;25.25;;
36291;SDS011;22327;51.208;6.418;2023-04-08T03:56:10;79.82;;;26.95;;
36291;SDS011;22327;51.208;6.418;2023-04-08T03:58:36;86.30;;;27.83;;
36291;SDS011;22327;51.208;6.418;2023-04-08T04:01:01;77.72;;;28.08;;
36291;SDS011;22327;51.208;6.418;2023-04-08T04:03:27;100.32;;;30.00;;
36291;SDS011;22327;51.208;6.418;2023-04-08T04:05:53;84.32;;;27.80;;
36291;SDS011;22327;51.208;6.418;2023-04-08T04:08:18;86.40;;;27.60;;
36291;SDS011;22327;51.208;6.418;2023-04-08T04:10:44;95.35;;;29.38;;
36291;SDS011;22327;51.208;6.418;2023-04-08T04:13:09;105.38;;;30.98;;
36291;SDS011;22327;51.208;6.418;2023-04-08T04:15:38;94.68;;;29.92;;
36291;SDS011;22327;51.208;6.418;2023-04-08T04:18:05;94.43;;;28.05;;
36291;SDS011;22327;51.208;6.418;2023-04-08T04:20:30;80.35;;;27.35;;
36291;SDS011;22327;51.208;6.418;2023-04-08T04:22:56;89.05;;;28.55;;
36291;SDS011;22327;51.208;6.418;2023-04-08T04:25:22;111.85;;;30.10;;
36291;SDS011;22327;51.208;6.418;2023-04-08T04:27:48;86.65;;;28.95;;
36291;SDS011;22327;51.208;6.418;2023-04-08T04:30:14;98.88;;;29.80;;
36291;SDS011;22327;51.208;6.418;2023-04-08T04:32:42;75.55;;;27.05;;
36291;SDS011;22327;51.208;6.418;2023-04-08T04:35:08;85.70;;;27.98;;
36291;SDS011;22327;51.208;6.418;2023-04-08T04:37:34;88.43;;;28.77;;
36291;SDS011;22327;51.208;6.418;2023-04-08T04:40:00;88.82;;;28.33;;
36291;SDS011;22327;51.208;6.418;2023-04-08T04:42:26;102.63;;;30.73;;
36291;SDS011;22327;51.208;6.418;2023-04-08T04:44:52;89.63;;;29.10;;
36291;SDS011;22327;51.208;6.418;2023-04-08T04:47:18;79.05;;;27.13;;
36291;SDS011;22327;51.208;6.418;2023-04-08T04:49:44;90.85;;;28.90;;
36291;SDS011;22327;51.208;6.418;2023-04-08T04:52:09;101.57;;;29.05;;
36291;SDS011;22327;51.208;6.418;2023-04-08T04:54:35;89.28;;;30.50;;
36291;SDS011;22327;51.208;6.418;2023-04-08T04:57:00;90.00;;;28.95;;
36291;SDS011;22327;51.208;6.418;2023-04-08T04:59:26;88.55;;;28.98;;
36291;SDS011;22327;51.208;6.418;2023-04-08T05:01:52;95.03;;;30.20;;
36291;SDS011;22327;51.208;6.418;2023-04-08T05:04:17;88.15;;;29.40;;
36291;SDS011;22327;51.208;6.418;2023-04-08T05:06:43;92.80;;;31.23;;
36291;SDS011;22327;51.208;6.418;2023-04-08T05:09:08;86.18;;;28.73;;
36291;SDS011;22327;51.208;6.418;2023-04-08T05:11:34;100.00;;;31.50;;
36291;SDS011;22327;51.208;6.418;2023-04-08T05:13:59;96.90;;;31.20;;
36291;SDS011;22327;51.208;6.418;2023-04-08T05:16:25;103.68;;;33.20;;
36291;SDS011;22327;51.208;6.418;2023-04-08T05:18:51;87.80;;;30.67;;
36291;SDS011;22327;51.208;6.418;2023-04-08T05:21:16;89.63;;;30.33;;
36291;SDS011;22327;51.208;6.418;2023-04-08T05:23:41;102.75;;;33.53;;
36291;SDS011;22327;51.208;6.418;2023-04-08T05:26:07;86.93;;;32.85;;
36291;SDS011;22327;51.208;6.418;2023-04-08T05:28:33;94.90;;;31.85;;
36291;SDS011;22327;51.208;6.418;2023-04-08T05:30:59;93.80;;;32.30;;
36291;SDS011;22327;51.208;6.418;2023-04-08T05:33:24;93.07;;;32.17;;
36291;SDS011;22327;51.208;6.418;2023-04-08T05:35:50;93.25;;;31.77;;
36291;SDS011;22327;51.208;6.418;2023-04-08T05:38:17;96.28;;;31.45;;
36291;SDS011;22327;51.208;6.418;2023-04-08T05:40:43;93.22;;;32.42;;
36291;SDS011;22327;51.208;6.418;2023-04-08T05:43:08;80.78;;;29.88;;
36291;SDS011;22327;51.208;6.418;2023-04-08T05:45:34;82.18;;;30.23;;
36291;SDS011;22327;51.208;6.418;2023-04-08T05:48:00;75.18;;;29.73;;
36291;SDS011;22327;51.208;6.418;2023-04-08T05:50:25;82.13;;;28.67;;
36291;SDS011;22327;51.208;6.418;2023-04-08T05:52:51;76.78;;;30.38;;
36291;SDS011;22327;51.208;6.418;2023-04-08T05:55:16;71.43;;;29.40;;
36291;SDS011;22327;51.208;6.418;2023-04-08T05:57:42;67.72;;;28.85;;
36291;SDS011;22327;51.208;6.418;2023-04-08T06:00:08;71.20;;;29.05;;
36291;SDS011;22327;51.208;6.418;2023-04-08T06:02:34;74.78;;;29.60;;
36291;SDS011;22327;51.208;6.418;2023-04-08T06:05:00;62.83;;;28.20;;
36291;SDS011;22327;51.208;6.418;2023-04-08T06:07:27;69.50;;;29.27;;
36291;SDS011;22327;51.208;6.418;2023-04-08T06:09:53;64.00;;;28.27;;
36291;SDS011;22327;51.208;6.418;2023-04-08T06:12:18;64.45;;;28.17;;
36291;SDS011;22327;51.208;6.418;2023-04-08T06:14:44;64.70;;;28.35;;
36291;SDS011;22327;51.208;6.418;2023-04-08T06:17:10;60.03;;;28.60;;
36291;SDS011;22327;51.208;6.418;2023-04-08T06:19:35;62.25;;;27.85;;
36291;SDS011;22327;51.208;6.418;2023-04-08T06:22:01;55.33;;;27.20;;
36291;SDS011;22327;51.208;6.418;2023-04-08T06:24:27;55.30;;;26.02;;
36291;SDS011;22327;51.208;6.418;2023-04-08T06:26:53;56.13;;;26.85;;
36291;SDS011;22327;51.208;6.418;2023-04-08T06:29:20;57.88;;;26.77;;
36291;SDS011;22327;51.208;6.418;2023-04-08T06:31:46;53.53;;;27.33;;
36291;SDS011;22327;51.208;6.418;2023-04-08T06:34:11;55.33;;;27.95;;
36291;SDS011;22327;51.208;6.418;2023-04-08T06:36:37;55.42;;;26.17;;
36291;SDS011;22327;51.208;6.418;2023-04-08T06:39:02;52.92;;;27.83;;
36291;SDS011;22327;51.208;6.418;2023-04-08T06:41:28;49.53;;;25.73;;
36291;SDS011;22327;51.208;6.418;2023-04-08T06:43:54;49.63;;;27.92;;
36291;SDS011;22327;51.208;6.418;2023-04-08T06:46:20;55.58;;;27.58;;
36291;SDS011;22327;51.208;6.418;2023-04-08T06:48:46;51.58;;;26.42;;
36291;SDS011;22327;51.208;6.418;2023-04-08T06:51:11;44.88;;;25.38;;
36291;SDS011;22327;51.208;6.418;2023-04-08T06:53:37;45.33;;;26.20;;
36291;SDS011;22327;51.208;6.418;2023-04-08T06:56:02;48.90;;;27.13;;
36291;SDS011;22327;51.208;6.418;2023-04-08T06:58:28;46.25;;;26.52;;
36291;SDS011;22327;51.208;6.418;2023-04-08T07:00:54;41.40;;;25.73;;
36291;SDS011;22327;51.208;6.418;2023-04-08T07:03:20;39.13;;;24.88;;
36291;SDS011;22327;51.208;6.418;2023-04-08T07:05:46;41.05;;;24.20;;
36291;SDS011;22327;51.208;6.418;2023-04-08T07:08:11;41.53;;;24.98;;
36291;SDS011;22327;51.208;6.418;2023-04-08T07:10:37;41.78;;;25.52;;
36291;SDS011;22327;51.208;6.418;2023-04-08T07:13:03;39.28;;;23.33;;
36291;SDS011;22327;51.208;6.418;2023-04-08T07:15:28;39.83;;;24.13;;
36291;SDS011;22327;51.208;6.418;2023-04-08T07:17:54;40.70;;;23.02;;
36291;SDS011;22327;51.208;6.418;2023-04-08T07:20:23;39.97;;;22.63;;
36291;SDS011;22327;51.208;6.418;2023-04-08T07:22:50;37.08;;;22.85;;
36291;SDS011;22327;51.208;6.418;2023-04-08T07:25:16;38.33;;;24.13;;
36291;SDS011;22327;51.208;6.418;2023-04-08T07:27:41;42.40;;;25.02;;
36291;SDS011;22327;51.208;6.418;2023-04-08T07:30:07;43.40;;;26.30;;
36291;SDS011;22327;51.208;6.418;2023-04-08T07:32:33;39.63;;;23.85;;
36291;SDS011;22327;51.208;6.418;2023-04-08T07:34:59;40.47;;;25.00;;
36291;SDS011;22327;51.208;6.418;2023-04-08T07:37:28;37.35;;;23.55;;
36291;SDS011;22327;51.208;6.418;2023-04-08T07:39:53;34.88;;;21.77;;
36291;SDS011;22327;51.208;6.418;2023-04-08T07:42:19;37.33;;;22.73;;
36291;SDS011;22327;51.208;6.418;2023-04-08T07:44:45;36.40;;;22.90;;
36291;SDS011;22327;51.208;6.418;2023-04-08T07:47:12;37.45;;;23.02;;
36291;SDS011;22327;51.208;6.418;2023-04-08T07:49:38;37.15;;;23.33;;
36291;SDS011;22327;51.208;6.418;2023-04-08T07:52:03;39.05;;;24.38;;
36291;SDS011;22327;51.208;6.418;2023-04-08T07:54:30;35.15;;;22.95;;
36291;SDS011;22327;51.208;6.418;2023-04-08T07:56:58;38.05;;;24.40;;
36291;SDS011;22327;51.208;6.418;2023-04-08T07:59:24;34.72;;;22.70;;
36291;SDS011;22327;51.208;6.418;2023-04-08T08:01:49;37.08;;;24.05;;
36291;SDS011;22327;51.208;6.418;2023-04-08T08:04:15;36.50;;;23.77;;
36291;SDS011;22327;51.208;6.418;2023-04-08T08:06:41;35.58;;;23.13;;
36291;SDS011;22327;51.208;6.418;2023-04-08T08:09:06;36.10;;;23.27;;
36291;SDS011;22327;51.208;6.418;2023-04-08T08:11:32;35.83;;;23.48;;
36291;SDS011;22327;51.208;6.418;2023-04-08T08:13:57;33.83;;;22.58;;
36291;SDS011;22327;51.208;6.418;2023-04-08T08:16:23;36.67;;;21.90;;
36291;SDS011;22327;51.208;6.418;2023-04-08T08:18:52;32.33;;;21.52;;
36291;SDS011;22327;51.208;6.418;2023-04-08T08:21:18;31.67;;;22.77;;
36291;SDS011;22327;51.208;6.418;2023-04-08T08:23:43;32.67;;;22.90;;
36291;SDS011;22327;51.208;6.418;2023-04-08T08:26:09;32.40;;;22.52;;
36291;SDS011;22327;51.208;6.418;2023-04-08T08:28:34;33.70;;;23.67;;
36291;SDS011;22327;51.208;6.418;2023-04-08T08:31:00;32.50;;;24.35;;
36291;SDS011;22327;51.208;6.418;2023-04-08T08:33:27;34.13;;;23.60;;
36291;SDS011;22327;51.208;6.418;2023-04-08T08:35:53;35.40;;;23.15;;
36291;SDS011;22327;51.208;6.418;2023-04-08T08:38:19;32.30;;;21.65;;
36291;SDS011;22327;51.208;6.418;2023-04-08T08:40:44;35.47;;;21.98;;
36291;SDS011;22327;51.208;6.418;2023-04-08T08:43:10;35.97;;;21.77;;
36291;SDS011;22327;51.208;6.418;2023-04-08T08:45:39;32.72;;;21.90;;
36291;SDS011;22327;51.208;6.418;2023-04-08T08:48:06;34.55;;;21.42;;
36291;SDS011;22327;51.208;6.418;2023-04-08T08:50:35;32.90;;;22.30;;
36291;SDS011;22327;51.208;6.418;2023-04-08T08:53:01;34.60;;;23.45;;
36291;SDS011;22327;51.208;6.418;2023-04-08T08:55:29;33.95;;;22.30;;
36291;SDS011;22327;51.208;6.418;2023-04-08T08:57:56;28.73;;;19.90;;
36291;SDS011;22327;51.208;6.418;2023-04-08T09:00:31;27.33;;;19.40;;
36291;SDS011;22327;51.208;6.418;2023-04-08T09:03:12;29.48;;;19.98;;
36291;SDS011;22327;51.208;6.418;2023-04-08T09:05:45;28.17;;;19.58;;
36291;SDS011;22327;51.208;6.418;2023-04-08T09:08:22;25.35;;;17.70;;
36291;SDS011;22327;51.208;6.418;2023-04-08T09:10:47;25.67;;;18.45;;
36291;SDS011;22327;51.208;6.418;2023-04-08T09:13:13;23.15;;;17.08;;
36291;SDS011;22327;51.208;6.418;2023-04-08T09:18:30;22.13;;;16.27;;
36291;SDS011;22327;51.208;6.418;2023-04-08T09:21:00;20.83;;;16.25;;
36291;SDS011;22327;51.208;6.418;2023-04-08T09:23:36;20.27;;;14.13;;
36291;SDS011;22327;51.208;6.418;2023-04-08T09:26:10;20.83;;;14.95;;
36291;SDS011;22327;51.208;6.418;2023-04-08T09:28:38;16.95;;;12.85;;
36291;SDS011;22327;51.208;6.418;2023-04-08T09:31:17;16.45;;;12.93;;
36291;SDS011;22327;51.208;6.418;2023-04-08T09:33:48;15.73;;;12.98;;
36291;SDS011;22327;51.208;6.418;2023-04-08T09:36:15;16.90;;;13.15;;
36291;SDS011;22327;51.208;6.418;2023-04-08T09:38:42;16.92;;;12.70;;
36291;SDS011;22327;51.208;6.418;2023-04-08T09:41:08;16.13;;;11.85;;
36291;SDS011;22327;51.208;6.418;2023-04-08T09:43:41;14.77;;;11.57;;
36291;SDS011;22327;51.208;6.418;2023-04-08T09:46:12;16.10;;;12.40;;
36291;SDS011;22327;51.208;6.418;2023-04-08T09:48:39;13.45;;;11.48;;
36291;SDS011;22327;51.208;6.418;2023-04-08T09:51:11;14.60;;;11.50;;
36291;SDS011;22327;51.208;6.418;2023-04-08T09:53:44;14.52;;;11.32;;
36291;SDS011;22327;51.208;6.418;2023-04-08T09:56:11;16.58;;;12.88;;
36291;SDS011;22327;51.208;6.418;2023-04-08T09:58:41;16.48;;;12.23;;
36291;SDS011;22327;51.208;6.418;2023-04-08T10:01:16;16.02;;;12.80;;
36291;SDS011;22327;51.208;6.418;2023-04-08T10:03:48;16.33;;;12.83;;
36291;SDS011;22327;51.208;6.418;2023-04-08T10:06:21;15.63;;;12.77;;
36291;SDS011;22327;51.208;6.418;2023-04-08T10:08:51;15.27;;;12.68;;
36291;SDS011;22327;51.208;6.418;2023-04-08T10:11:17;17.13;;;13.45;;
36291;SDS011;22327;51.208;6.418;2023-04-08T10:13:43;17.73;;;13.52;;
36291;SDS011;22327;51.208;6.418;2023-04-08T10:16:30;17.00;;;13.77;;
36291;SDS011;22327;51.208;6.418;2023-04-08T10:18:55;17.42;;;13.55;;
36291;SDS011;22327;51.208;6.418;2023-04-08T10:21:34;18.65;;;13.77;;
36291;SDS011;22327;51.208;6.418;2023-04-08T10:24:01;17.30;;;13.48;;
36291;SDS011;22327;51.208;6.418;2023-04-08T10:26:31;18.05;;;13.60;;
36291;SDS011;22327;51.208;6.418;2023-04-08T10:31:56;20.15;;;14.25;;
36291;SDS011;22327;51.208;6.418;2023-04-08T10:34:22;20.70;;;14.85;;
36291;SDS011;22327;51.208;6.418;2023-04-08T10:36:50;19.92;;;15.18;;
36291;SDS011;22327;51.208;6.418;2023-04-08T10:39:16;18.42;;;14.10;;
36291;SDS011;22327;51.208;6.418;2023-04-08T10:41:42;19.33;;;13.90;;
36291;SDS011;22327;51.208;6.418;2023-04-08T10:44:31;16.77;;;13.20;;
36291;SDS011;22327;51.208;6.418;2023-04-08T10:46:55;16.88;;;13.55;;
36291;SDS011;22327;51.208;6.418;2023-04-08T10:49:21;16.50;;;13.20;;
36291;SDS011;22327;51.208;6.418;2023-04-08T10:51:55;16.20;;;13.13;;
36291;SDS011;22327;51.208;6.418;2023-04-08T10:54:21;16.95;;;13.35;;
36291;SDS011;22327;51.208;6.418;2023-04-08T10:56:48;16.90;;;13.25;;
36291;SDS011;22327;51.208;6.418;2023-04-08T10:59:15;15.73;;;12.85;;
36291;SDS011;22327;51.208;6.418;2023-04-08T11:01:43;14.70;;;12.88;;
36291;SDS011;22327;51.208;6.418;2023-04-08T11:04:13;16.10;;;13.40;;
36291;SDS011;22327;51.208;6.418;2023-04-08T11:06:41;16.00;;;12.77;;
36291;SDS011;22327;51.208;6.418;2023-04-08T11:09:07;16.58;;;13.35;;
36291;SDS011;22327;51.208;6.418;2023-04-08T11:11:33;17.25;;;13.38;;
36291;SDS011;22327;51.208;6.418;2023-04-08T11:13:59;15.75;;;12.68;;
36291;SDS011;22327;51.208;6.418;2023-04-08T11:16:26;14.18;;;12.05;;
36291;SDS011;22327;51.208;6.418;2023-04-08T11:18:52;16.50;;;13.15;;
36291;SDS011;22327;51.208;6.418;2023-04-08T11:21:18;15.52;;;12.68;;
36291;SDS011;22327;51.208;6.418;2023-04-08T11:23:44;14.65;;;12.15;;
36291;SDS011;22327;51.208;6.418;2023-04-08T11:26:09;15.93;;;12.82;;
36291;SDS011;22327;51.208;6.418;2023-04-08T11:28:35;14.73;;;13.13;;
36291;SDS011;22327;51.208;6.418;2023-04-08T11:31:01;14.82;;;12.23;;
36291;SDS011;22327;51.208;6.418;2023-04-08T11:33:31;14.40;;;11.52;;
36291;SDS011;22327;51.208;6.418;2023-04-08T11:35:56;16.00;;;12.00;;
36291;SDS011;22327;51.208;6.418;2023-04-08T11:38:25;14.10;;;11.75;;
36291;SDS011;22327;51.208;6.418;2023-04-08T11:40:53;16.08;;;12.50;;
36291;SDS011;22327;51.208;6.418;2023-04-08T11:43:23;12.93;;;10.63;;
36291;SDS011;22327;51.208;6.418;2023-04-08T11:45:50;13.10;;;11.50;;
36291;SDS011;22327;51.208;6.418;2023-04-08T11:48:16;14.65;;;11.23;;
36291;SDS011;22327;51.208;6.418;2023-04-08T11:50:42;13.00;;;11.18;;
36291;SDS011;22327;51.208;6.418;2023-04-08T11:53:42;12.65;;;9.40;;
36291;SDS011;22327;51.208;6.418;2023-04-08T11:56:14;11.65;;;8.23;;
36291;SDS011;22327;51.208;6.418;2023-04-08T11:58:41;9.90;;;8.30;;
36291;SDS011;22327;51.208;6.418;2023-04-08T12:01:06;10.82;;;7.88;;
36291;SDS011;22327;51.208;6.418;2023-04-08T12:03:32;9.15;;;7.95;;
36291;SDS011;22327;51.208;6.418;2023-04-08T12:05:57;9.23;;;7.45;;
36291;SDS011;22327;51.208;6.418;2023-04-08T12:08:23;10.30;;;8.55;;
36291;SDS011;22327;51.208;6.418;2023-04-08T12:10:49;9.90;;;8.90;;
36291;SDS011;22327;51.208;6.418;2023-04-08T12:13:15;9.98;;;8.98;;
36291;SDS011;22327;51.208;6.418;2023-04-08T12:15:40;9.77;;;8.77;;
36291;SDS011;22327;51.208;6.418;2023-04-08T12:18:06;10.35;;;9.25;;
36291;SDS011;22327;51.208;6.418;2023-04-08T12:20:32;9.27;;;8.38;;
36291;SDS011;22327;51.208;6.418;2023-04-08T12:22:57;11.80;;;9.70;;
36291;SDS011;22327;51.208;6.418;2023-04-08T12:25:23;10.35;;;9.25;;
36291;SDS011;22327;51.208;6.418;2023-04-08T12:27:48;10.13;;;9.10;;
36291;SDS011;22327;51.208;6.418;2023-04-08T12:30:14;10.57;;;9.57;;
36291;SDS011;22327;51.208;6.418;2023-04-08T12:32:40;10.85;;;9.75;;
36291;SDS011;22327;51.208;6.418;2023-04-08T12:35:06;10.65;;;9.65;;
36291;SDS011;22327;51.208;6.418;2023-04-08T12:37:32;9.60;;;8.60;;
36291;SDS011;22327;51.208;6.418;2023-04-08T12:39:58;10.65;;;9.55;;
36291;SDS011;22327;51.208;6.418;2023-04-08T12:42:23;10.43;;;9.32;;
36291;SDS011;22327;51.208;6.418;2023-04-08T12:44:49;10.70;;;9.60;;
36291;SDS011;22327;51.208;6.418;2023-04-08T12:47:14;9.90;;;8.90;;
36291;SDS011;22327;51.208;6.418;2023-04-08T12:49:40;11.20;;;9.32;;
36291;SDS011;22327;51.208;6.418;2023-04-08T12:52:05;9.75;;;8.32;;
36291;SDS011;22327;51.208;6.418;2023-04-08T12:54:31;10.30;;;8.55;;
36291;SDS011;22327;51.208;6.418;2023-04-08T12:56:56;7.82;;;7.00;;
36291;SDS011;22327;51.208;6.418;2023-04-08T12:59:22;6.85;;;6.18;;
36291;SDS011;22327;51.208;6.418;2023-04-08T13:01:47;8.95;;;7.03;;
36291;SDS011;22327;51.208;6.418;2023-04-08T13:04:13;9.27;;;8.27;;
36291;SDS011;22327;51.208;6.418;2023-04-08T13:06:38;10.30;;;8.07;;
36291;SDS011;22327;51.208;6.418;2023-04-08T13:09:04;10.20;;;7.85;;
36291;SDS011;22327;51.208;6.418;2023-04-08T13:11:30;8.82;;;7.75;;
36291;SDS011;22327;51.208;6.418;2023-04-08T13:13:57;12.15;;;9.70;;
36291;SDS011;22327;51.208;6.418;2023-04-08T13:16:23;9.50;;;8.55;;
36291;SDS011;22327;51.208;6.418;2023-04-08T13:18:49;10.25;;;8.63;;
36291;SDS011;22327;51.208;6.418;2023-04-08T13:21:16;9.25;;;8.32;;
36291;SDS011;22327;51.208;6.418;2023-04-08T13:23:41;9.07;;;8.07;;
36291;SDS011;22327;51.208;6.418;2023-04-08T13:26:07;9.25;;;7.57;;
36291;SDS011;22327;51.208;6.418;2023-04-08T13:28:32;8.52;;;7.68;;
36291;SDS011;22327;51.208;6.418;2023-04-08T13:30:58;7.50;;;6.75;;
36291;SDS011;22327;51.208;6.418;2023-04-08T13:33:24;8.57;;;7.20;;
36291;SDS011;22327;51.208;6.418;2023-04-08T13:35:49;8.77;;;7.88;;
36291;SDS011;22327;51.208;6.418;2023-04-08T13:38:15;7.82;;;7.03;;
36291;SDS011;22327;51.208;6.418;2023-04-08T13:40:40;7.30;;;6.28;;
36291;SDS011;22327;51.208;6.418;2023-04-08T13:43:06;6.07;;;5.55;;
36291;SDS011;22327;51.208;6.418;2023-04-08T13:45:32;7.05;;;5.65;;
36291;SDS011;22327;51.208;6.418;2023-04-08T13:47:57;6.30;;;5.70;;
36291;SDS011;22327;51.208;6.418;2023-04-08T13:50:23;7.80;;;5.80;;
36291;SDS011;22327;51.208;6.418;2023-04-08T13:52:49;7.63;;;6.03;;
36291;SDS011;22327;51.208;6.418;2023-04-08T13:55:15;8.20;;;5.75;;
36291;SDS011;22327;51.208;6.418;2023-04-08T13:57:40;8.50;;;5.60;;
36291;SDS011;22327;51.208;6.418;2023-04-08T14:00:06;8.25;;;5.75;;
36291;SDS011;22327;51.208;6.418;2023-04-08T14:02:32;6.65;;;5.70;;
36291;SDS011;22327;51.208;6.418;2023-04-08T14:04:57;6.07;;;5.45;;
36291;SDS011;22327;51.208;6.418;2023-04-08T14:07:23;7.22;;;5.30;;
36291;SDS011;22327;51.208;6.418;2023-04-08T14:09:49;7.07;;;5.80;;
36291;SDS011;22327;51.208;6.418;2023-04-08T14:12:14;6.65;;;5.63;;
36291;SDS011;22327;51.208;6.418;2023-04-08T14:14:40;6.68;;;5.50;;
36291;SDS011;22327;51.208;6.418;2023-04-08T14:17:05;9.25;;;5.82;;
36291;SDS011;22327;51.208;6.418;2023-04-08T14:19:31;7.35;;;6.35;;
36291;SDS011;22327;51.208;6.418;2023-04-08T14:21:56;7.45;;;6.65;;
36291;SDS011;22327;51.208;6.418;2023-04-08T14:24:22;7.40;;;6.60;;
36291;SDS011;22327;51.208;6.418;2023-04-08T14:26:47;6.38;;;5.72;;
36291;SDS011;22327;51.208;6.418;2023-04-08T14:29:14;8.20;;;6.55;;